To NAV CANADA Home Page Login to a new session Search on AWWS site Disclaimer Vers la page française équivalente Tips FAQ What's new on the site To the Forecasts and Observations / NOTAM section To "File a Flight Plan" website Publications and other links Update of the User's profile FIC Telephone Numbers My Weather Data Folder Route Weather Data Regional Weather Data Local Weather Data To the Forecasts and Observations / NOTAM section
Request Generated 03/21/2019 at 01:42:43 UTC . Weather information available at that time is displayed.

METAR/TAF

YARMOUTH/NS    

METAR CYQI 210100Z 21006KT 15SM SKC M01/M05 A3036 RMK SLP286=
METAR CYQI 210000Z 21006KT 15SM SKC M01/M07 A3036 RMK SLP285=
METAR CYQI 202300Z 21005KT 15SM FEW250 M01/M09 A3035 RMK CI1 CI TR SLP282=

TAF CYQI 202338Z 2100/2112 21005KT P6SM FEW240
RMK NXT FCST BY 210600Z=
Your time UTC time
Weather data provided by Environment Canada and NAV CANADA